createdAt,value
2019-02-23T00:00:55.392Z,99.90
2019-02-23T00:03:24.573Z,99.90
2019-02-23T00:05:53.760Z,99.90
2019-02-23T00:08:23.037Z,99.90
2019-02-23T00:10:52.294Z,99.90
2019-02-23T00:13:21.547Z,99.90
2019-02-23T00:15:50.911Z,99.90
2019-02-23T00:18:20.149Z,99.90
2019-02-23T00:20:49.405Z,99.90
2019-02-23T00:23:18.602Z,99.90
2019-02-23T00:25:47.871Z,99.90
2019-02-23T00:28:17.051Z,99.90
2019-02-23T00:30:46.419Z,99.90
2019-02-23T00:33:15.662Z,99.90
2019-02-23T00:35:44.922Z,99.90
2019-02-23T00:38:14.216Z,99.90
2019-02-23T00:40:43.757Z,99.90
2019-02-23T00:43:12.998Z,99.90
2019-02-23T00:45:42.415Z,99.90
2019-02-23T00:48:11.643Z,99.90
2019-02-23T00:50:40.890Z,99.90
2019-02-23T00:53:10.163Z,99.90
2019-02-23T00:55:39.428Z,99.90
2019-02-23T00:58:08.674Z,99.90
2019-02-23T01:00:37.863Z,99.90
2019-02-23T01:03:07.166Z,99.90
2019-02-23T01:05:36.438Z,99.90
2019-02-23T01:08:05.734Z,99.90
2019-02-23T01:10:34.975Z,99.90
2019-02-23T01:13:04.209Z,99.90
2019-02-23T01:15:33.483Z,99.90
2019-02-23T01:18:02.733Z,99.90
2019-02-23T01:20:32.548Z,99.90
2019-02-23T01:23:01.793Z,99.90
2019-02-23T01:25:30.964Z,99.90
2019-02-23T01:28:00.516Z,99.90
2019-02-23T01:30:29.793Z,99.90
2019-02-23T01:32:58.963Z,99.90
2019-02-23T01:35:28.137Z,99.90
2019-02-23T01:37:57.438Z,99.90
2019-02-23T01:40:26.687Z,99.90
2019-02-23T01:42:55.923Z,99.90
2019-02-23T01:45:25.182Z,99.90
2019-02-23T01:47:54.419Z,99.90
2019-02-23T01:50:23.577Z,99.90
2019-02-23T01:52:52.942Z,99.90
2019-02-23T01:55:22.184Z,99.90
2019-02-23T01:57:51.437Z,99.90
2019-02-23T02:00:21.507Z,99.90
2019-02-23T02:02:50.752Z,99.90
2019-02-23T02:05:19.999Z,99.90
2019-02-23T02:07:49.950Z,99.90
2019-02-23T02:10:19.519Z,99.90
2019-02-23T02:12:48.839Z,99.90
2019-02-23T02:15:18.113Z,99.90
2019-02-23T02:17:47.463Z,99.90
2019-02-23T02:20:16.643Z,99.90
2019-02-23T02:22:45.986Z,99.90
2019-02-23T02:25:15.149Z,99.90
2019-02-23T02:27:44.402Z,99.90
2019-02-23T02:30:14.067Z,99.90
2019-02-23T02:32:43.375Z,99.90
2019-02-23T02:35:12.570Z,99.90
2019-02-23T02:37:41.851Z,99.90
2019-02-23T02:40:11.104Z,99.90
2019-02-23T02:42:40.427Z,99.90
2019-02-23T02:45:10.779Z,99.90
2019-02-23T02:47:40.040Z,99.90
2019-02-23T02:50:23.367Z,99.90
2019-02-23T02:52:41.224Z,99.90
2019-02-23T02:55:10.769Z,99.90
2019-02-23T02:57:40.083Z,99.90
2019-02-23T03:00:11.999Z,99.90
2019-02-23T03:02:41.641Z,99.90
2019-02-23T03:05:11.035Z,99.90
2019-02-23T03:07:40.300Z,99.90
2019-02-23T03:10:09.511Z,99.90
2019-02-23T03:12:38.755Z,99.90
2019-02-23T03:15:08.620Z,99.90
2019-02-23T03:17:37.942Z,99.90
2019-02-23T03:20:08.638Z,99.90
2019-02-23T03:22:37.901Z,99.90
2019-02-23T03:25:07.577Z,99.90
2019-02-23T03:27:36.904Z,99.90
2019-02-23T03:30:07.352Z,99.90
2019-02-23T03:32:36.599Z,99.90
2019-02-23T03:35:06.146Z,99.90
2019-02-23T03:37:35.431Z,99.90
2019-02-23T03:40:05.433Z,99.90
2019-02-23T03:42:34.799Z,99.90
2019-02-23T03:45:04.376Z,99.90
2019-02-23T03:47:33.736Z,99.90
2019-02-23T03:50:03.023Z,99.90
2019-02-23T03:52:32.378Z,99.90
2019-02-23T03:55:01.654Z,99.90
2019-02-23T03:57:30.900Z,99.90
2019-02-23T04:00:00.422Z,99.90
2019-02-23T04:02:29.717Z,99.90
2019-02-23T04:04:58.978Z,99.90
2019-02-23T04:07:28.267Z,99.90
2019-02-23T04:09:57.611Z,99.90
2019-02-23T04:12:26.868Z,99.90
2019-02-23T04:14:56.123Z,99.90
2019-02-23T04:17:25.365Z,99.90
2019-02-23T04:19:54.624Z,99.90
2019-02-23T04:22:23.924Z,99.90
2019-02-23T04:24:53.200Z,99.90
2019-02-23T04:27:22.534Z,99.90
2019-02-23T04:29:51.736Z,99.90
2019-02-23T04:32:20.970Z,99.90
2019-02-23T04:34:50.219Z,99.90
2019-02-23T04:37:19.486Z,99.90
2019-02-23T04:39:48.649Z,99.90
2019-02-23T04:42:17.807Z,99.90
2019-02-23T04:44:47.091Z,99.90
2019-02-23T04:47:16.332Z,99.90
2019-02-23T04:49:53.349Z,99.90
2019-02-23T04:52:22.526Z,99.90
2019-02-23T04:54:51.864Z,99.90
2019-02-23T04:57:21.065Z,99.90
2019-02-23T04:59:50.385Z,99.90
2019-02-23T05:02:19.616Z,99.90
2019-02-23T05:04:48.881Z,99.90
2019-02-23T05:07:18.214Z,99.90
2019-02-23T05:09:47.385Z,99.90
2019-02-23T05:12:16.678Z,99.90
2019-02-23T05:14:46.021Z,99.90
2019-02-23T05:17:15.283Z,99.90
2019-02-23T05:19:44.542Z,99.90
2019-02-23T05:22:13.860Z,99.90
2019-02-23T05:24:43.055Z,99.90
2019-02-23T05:27:12.250Z,99.90
2019-02-23T05:29:41.510Z,99.90
2019-02-23T05:32:10.849Z,99.90
2019-02-23T05:34:40.270Z,99.90
2019-02-23T05:37:09.436Z,99.90
2019-02-23T05:39:38.703Z,99.90
2019-02-23T05:42:08.056Z,99.90
2019-02-23T05:44:37.671Z,99.90
2019-02-23T05:47:06.979Z,99.90
2019-02-23T05:49:37.112Z,99.90
2019-02-23T05:52:06.615Z,99.90
2019-02-23T05:54:35.781Z,99.90
2019-02-23T05:57:05.063Z,99.90
2019-02-23T05:59:34.404Z,99.90
2019-02-23T06:02:03.744Z,99.90
2019-02-23T06:04:33.113Z,99.90
2019-02-23T06:07:02.345Z,99.90
2019-02-23T06:09:31.679Z,99.90
2019-02-23T06:12:01.429Z,99.90
2019-02-23T06:14:30.674Z,99.90
2019-02-23T06:16:59.920Z,99.90
2019-02-23T06:19:29.281Z,99.90
2019-02-23T06:21:58.526Z,99.90
2019-02-23T06:24:27.694Z,99.90
2019-02-23T06:26:56.988Z,99.90
2019-02-23T06:29:26.212Z,99.90
2019-02-23T06:31:56.059Z,99.90
2019-02-23T06:34:25.250Z,99.90
2019-02-23T06:36:54.559Z,99.90
2019-02-23T06:39:23.805Z,99.90
2019-02-23T06:41:53.099Z,99.90
2019-02-23T06:44:22.407Z,99.90
2019-02-23T06:46:51.592Z,99.90
2019-02-23T06:49:20.961Z,99.90
2019-02-23T06:51:50.234Z,99.90
2019-02-23T06:54:19.482Z,99.90
2019-02-23T06:56:48.782Z,99.90
2019-02-23T06:59:17.964Z,99.90
2019-02-23T07:01:47.288Z,99.90
2019-02-23T07:04:16.570Z,99.90
2019-02-23T07:06:45.842Z,99.90
2019-02-23T07:09:15.177Z,99.90
2019-02-23T07:11:44.532Z,99.90
2019-02-23T07:14:13.715Z,99.90
2019-02-23T07:16:43.040Z,99.90
2019-02-23T07:19:12.332Z,99.90
2019-02-23T07:21:41.524Z,99.90
2019-02-23T07:24:10.897Z,99.90
2019-02-23T07:26:40.215Z,99.90
2019-02-23T07:29:09.548Z,99.90
2019-02-23T07:31:38.724Z,99.90
2019-02-23T07:34:07.951Z,99.90
2019-02-23T07:36:37.187Z,99.90
2019-02-23T07:39:07.075Z,99.90
2019-02-23T07:41:36.355Z,99.90
2019-02-23T07:44:05.601Z,99.90
2019-02-23T07:46:34.792Z,99.90
2019-02-23T07:49:04.158Z,99.90
2019-02-23T07:51:33.341Z,99.90
2019-02-23T07:54:02.666Z,99.90
2019-02-23T07:56:32.046Z,99.90
2019-02-23T07:59:01.282Z,99.90
2019-02-23T08:01:30.449Z,99.90
2019-02-23T08:03:59.752Z,99.90
2019-02-23T08:06:29.030Z,99.90
2019-02-23T08:08:58.306Z,99.90
2019-02-23T08:11:27.508Z,99.90
2019-02-23T08:13:56.849Z,99.90
2019-02-23T08:16:26.035Z,99.90
2019-02-23T08:18:55.373Z,99.90
2019-02-23T08:21:24.625Z,99.90
2019-02-23T08:23:53.897Z,99.90
2019-02-23T08:26:23.117Z,99.90
2019-02-23T08:28:52.496Z,99.90
2019-02-23T08:31:21.734Z,99.90
2019-02-23T08:33:51.018Z,99.90
2019-02-23T08:36:20.341Z,99.90
2019-02-23T08:38:49.580Z,99.90
2019-02-23T08:41:18.851Z,99.90
2019-02-23T08:43:48.103Z,99.90
2019-02-23T08:46:17.353Z,99.90
2019-02-23T08:48:46.564Z,99.90
2019-02-23T08:51:15.740Z,99.90
2019-02-23T08:53:45.377Z,99.90
2019-02-23T08:56:14.738Z,99.90
2019-02-23T08:58:43.937Z,99.90
2019-02-23T09:01:13.291Z,99.90
2019-02-23T09:03:42.721Z,99.90
2019-02-23T09:06:12.035Z,99.90
2019-02-23T09:08:41.288Z,99.90
2019-02-23T09:11:10.878Z,99.90
2019-02-23T09:13:40.088Z,99.90
2019-02-23T09:16:09.419Z,99.90
2019-02-23T09:18:38.793Z,99.90
2019-02-23T09:21:08.108Z,99.90
2019-02-23T09:23:37.362Z,99.90
2019-02-23T09:26:06.572Z,99.90
2019-02-23T09:28:35.746Z,99.90
2019-02-23T09:31:05.063Z,99.90
2019-02-23T09:33:34.298Z,99.90
2019-02-23T09:36:03.520Z,99.90
2019-02-23T09:38:32.682Z,99.90
2019-02-23T09:41:01.972Z,99.90
2019-02-23T09:43:31.291Z,99.90
2019-02-23T09:46:00.526Z,99.90
2019-02-23T09:48:29.751Z,99.90
2019-02-23T09:50:59.017Z,99.90
2019-02-23T09:53:28.332Z,99.90
2019-02-23T09:55:57.632Z,99.90
2019-02-23T09:58:26.870Z,99.90
2019-02-23T10:00:56.228Z,99.90
2019-02-23T10:03:25.525Z,99.90
2019-02-23T10:05:54.724Z,99.90
2019-02-23T10:08:23.902Z,99.90
2019-02-23T10:10:53.097Z,99.20
2019-02-23T10:13:22.387Z,99.60
2019-02-23T10:15:51.726Z,97.50
2019-02-23T10:18:21.006Z,97.10
2019-02-23T10:20:50.258Z,99.20
2019-02-23T10:23:22.265Z,97.10
2019-02-23T10:25:50.522Z,95.90
2019-02-23T10:28:19.690Z,94.00
2019-02-23T10:30:48.873Z,96.30
2019-02-23T10:33:18.117Z,94.30
2019-02-23T10:35:47.360Z,95.10
2019-02-23T10:38:16.560Z,95.90
2019-02-23T10:40:45.848Z,94.20
2019-02-23T10:43:15.157Z,92.90
2019-02-23T10:45:44.425Z,91.60
2019-02-23T10:48:13.736Z,91.30
2019-02-23T10:50:43.004Z,87.60
2019-02-23T10:53:12.285Z,88.60
2019-02-23T10:55:41.680Z,87.90
2019-02-23T10:58:10.975Z,88.20
2019-02-23T11:00:40.220Z,89.70
2019-02-23T11:03:09.440Z,87.80
2019-02-23T11:05:38.790Z,85.60
2019-02-23T11:08:08.128Z,85.50
2019-02-23T11:10:37.411Z,86.10
2019-02-23T11:13:06.618Z,85.90
2019-02-23T11:15:35.960Z,84.60
2019-02-23T11:18:05.251Z,85.40
2019-02-23T11:20:34.593Z,83.20
2019-02-23T11:23:03.854Z,85.50
2019-02-23T11:25:33.533Z,83.80
2019-02-23T11:28:02.784Z,83.50
2019-02-23T11:30:31.979Z,84.30
2019-02-23T11:33:01.216Z,80.10
2019-02-23T11:35:30.476Z,81.30
2019-02-23T11:37:59.667Z,81.90
2019-02-23T11:40:28.945Z,80.70
2019-02-23T11:42:58.186Z,79.00
2019-02-23T11:45:27.453Z,78.40
2019-02-23T11:47:56.837Z,77.90
2019-02-23T11:50:26.218Z,79.10
2019-02-23T11:52:55.615Z,76.70
2019-02-23T11:55:24.991Z,77.50
2019-02-23T11:57:54.267Z,77.50
2019-02-23T12:00:23.479Z,77.20
2019-02-23T12:02:53.039Z,78.40
2019-02-23T12:05:22.492Z,78.60
2019-02-23T12:07:51.775Z,77.00
2019-02-23T12:10:21.136Z,76.80
2019-02-23T12:12:50.431Z,76.00
2019-02-23T12:15:19.702Z,74.70
2019-02-23T12:17:48.971Z,75.30
2019-02-23T12:20:18.150Z,74.90
2019-02-23T12:22:47.307Z,73.70
2019-02-23T12:25:16.683Z,75.90
2019-02-23T12:27:45.867Z,72.70
2019-02-23T12:30:15.085Z,73.70
2019-02-23T12:32:44.377Z,73.40
2019-02-23T12:35:13.810Z,74.20
2019-02-23T12:37:42.995Z,72.00
2019-02-23T12:40:12.490Z,71.80
2019-02-23T12:42:41.746Z,72.90
2019-02-23T12:45:11.114Z,72.50
2019-02-23T12:47:40.409Z,71.00
2019-02-23T12:50:09.876Z,69.40
2019-02-23T12:52:39.144Z,70.80
2019-02-23T12:55:09.071Z,70.30
2019-02-23T12:57:38.333Z,70.20
2019-02-23T13:00:08.824Z,68.30
2019-02-23T13:02:38.072Z,69.00
2019-02-23T13:05:07.664Z,68.10
2019-02-23T13:07:36.988Z,69.00
2019-02-23T13:10:07.304Z,67.70
2019-02-23T13:13:02.044Z,66.40
2019-02-23T13:16:04.550Z,66.80
2019-02-23T13:19:09.463Z,64.70
2019-02-23T13:22:27.900Z,64.10
2019-02-23T13:25:44.690Z,62.80
2019-02-23T13:28:40.903Z,64.20
2019-02-23T13:31:32.584Z,60.90
2019-02-23T13:34:45.112Z,62.90
2019-02-23T13:37:39.393Z,61.40
2019-02-23T13:40:37.112Z,62.30
2019-02-23T13:43:43.372Z,61.50
2019-02-23T13:46:50.215Z,59.10
2019-02-23T13:49:59.341Z,61.30
2019-02-23T13:53:15.309Z,57.30
2019-02-23T13:56:28.552Z,57.00
2019-02-23T13:59:08.962Z,57.40
2019-02-23T14:02:15.481Z,57.20
2019-02-23T14:05:16.543Z,56.70
2019-02-23T14:08:22.573Z,57.00
2019-02-23T14:11:27.151Z,57.10
2019-02-23T14:14:34.841Z,53.10
2019-02-23T14:17:47.803Z,53.50
2019-02-23T14:20:51.563Z,52.40
2019-02-23T14:23:42.639Z,52.70
2019-02-23T14:27:02.288Z,53.20
2019-02-23T14:30:11.094Z,55.20
2019-02-23T14:33:14.014Z,55.80
2019-02-23T14:36:00.012Z,56.00
2019-02-23T14:39:15.221Z,55.80
2019-02-23T14:41:54.068Z,56.10
2019-02-23T14:44:57.936Z,56.40
2019-02-23T14:48:10.088Z,56.30
2019-02-23T14:51:26.834Z,56.30
2019-02-23T14:54:33.692Z,55.50
2019-02-23T14:57:50.487Z,54.70
2019-02-23T15:00:44.855Z,53.20
2019-02-23T15:04:16.607Z,49.40
2019-02-23T15:07:14.595Z,48.80
2019-02-23T15:10:02.803Z,44.20
2019-02-23T15:13:31.001Z,43.60
2019-02-23T15:16:41.350Z,43.00
2019-02-23T15:19:44.691Z,44.10
2019-02-23T15:23:00.994Z,45.50
2019-02-23T15:26:11.245Z,44.90
2019-02-23T15:29:16.557Z,43.40
2019-02-23T15:32:30.022Z,41.90
2019-02-23T15:35:20.636Z,40.50
2019-02-23T15:38:14.579Z,40.90
2019-02-23T15:41:13.224Z,42.10
2019-02-23T15:44:21.466Z,40.70
2019-02-23T15:47:29.574Z,39.90
2019-02-23T15:49:58.843Z,41.10
2019-02-23T15:52:28.110Z,42.20
2019-02-23T15:54:57.379Z,41.60
2019-02-23T15:57:26.680Z,41.80
2019-02-23T15:59:55.955Z,42.40
2019-02-23T16:02:25.307Z,43.20
2019-02-23T16:04:54.668Z,43.70
2019-02-23T16:07:23.911Z,44.00
2019-02-23T16:09:53.237Z,42.10
2019-02-23T16:12:22.547Z,41.60
2019-02-23T16:14:51.879Z,44.20
2019-02-23T16:17:21.139Z,44.60
2019-02-23T16:19:50.487Z,44.60
2019-02-23T16:22:19.904Z,45.30
2019-02-23T16:24:49.613Z,45.30
2019-02-23T16:27:21.914Z,44.00
2019-02-23T16:29:51.172Z,44.40
2019-02-23T16:32:20.476Z,44.70
2019-02-23T16:34:49.724Z,45.00
2019-02-23T16:37:19.010Z,45.60
2019-02-23T16:39:48.205Z,46.00
2019-02-23T16:42:19.279Z,47.50
2019-02-23T16:44:48.640Z,49.40
2019-02-23T16:47:17.955Z,51.60
2019-02-23T16:49:47.172Z,54.00
2019-02-23T16:52:16.432Z,55.80
2019-02-23T16:54:45.622Z,57.00
2019-02-23T16:57:17.321Z,58.10
2019-02-23T16:59:45.842Z,59.00
2019-02-23T17:02:15.185Z,59.10
2019-02-23T17:04:53.028Z,59.90
2019-02-23T17:07:15.559Z,60.10
2019-02-23T17:09:44.840Z,60.10
2019-02-23T17:12:14.217Z,60.80
2019-02-23T17:14:43.409Z,60.60
2019-02-23T17:17:12.998Z,61.00
2019-02-23T17:19:42.456Z,60.30
2019-02-23T17:22:11.714Z,60.90
2019-02-23T17:24:41.283Z,61.10
2019-02-23T17:27:10.663Z,61.10
2019-02-23T17:29:39.997Z,61.40
2019-02-23T17:32:09.300Z,61.80
2019-02-23T17:34:38.579Z,62.10
2019-02-23T17:37:07.838Z,62.10
2019-02-23T17:39:37.181Z,62.70
2019-02-23T17:42:06.420Z,62.60
2019-02-23T17:44:35.825Z,62.40
2019-02-23T17:47:05.166Z,62.60
2019-02-23T17:49:34.714Z,63.70
2019-02-23T17:52:03.984Z,62.70
2019-02-23T17:54:33.186Z,62.70
2019-02-23T17:57:02.631Z,63.10
2019-02-23T17:59:31.940Z,62.90
2019-02-23T18:02:01.365Z,63.40
2019-02-23T18:04:30.731Z,63.00
2019-02-23T18:07:00.090Z,63.40
2019-02-23T18:09:29.415Z,64.40
2019-02-23T18:11:58.729Z,63.90
2019-02-23T18:14:28.003Z,65.30
2019-02-23T18:16:57.266Z,65.60
2019-02-23T18:19:26.619Z,67.10
2019-02-23T18:21:55.778Z,67.30
2019-02-23T18:24:25.047Z,67.60
2019-02-23T18:26:54.324Z,67.60
2019-02-23T18:29:23.574Z,67.40
2019-02-23T18:31:52.747Z,67.40
2019-02-23T18:34:21.966Z,67.40
2019-02-23T18:36:51.242Z,67.60
2019-02-23T18:39:20.518Z,67.50
2019-02-23T18:41:49.827Z,67.60
2019-02-23T18:44:19.083Z,67.40
2019-02-23T18:46:48.384Z,67.80
2019-02-23T18:49:17.738Z,67.40
2019-02-23T18:51:47.121Z,68.10
2019-02-23T18:54:17.151Z,68.50
2019-02-23T18:56:46.410Z,68.00
2019-02-23T18:59:15.668Z,67.80
2019-02-23T19:01:45.021Z,68.00
2019-02-23T19:04:14.450Z,68.00
2019-02-23T19:06:43.698Z,68.00
2019-02-23T19:09:12.930Z,68.30
2019-02-23T19:11:42.158Z,68.40
2019-02-23T19:14:11.509Z,68.90
2019-02-23T19:16:40.761Z,69.90
2019-02-23T19:19:09.957Z,69.40
2019-02-23T19:21:39.222Z,69.90
2019-02-23T19:24:08.552Z,70.00
2019-02-23T19:26:38.446Z,70.60
2019-02-23T19:29:07.971Z,71.60
2019-02-23T19:31:37.137Z,71.90
2019-02-23T19:34:06.423Z,72.10
2019-02-23T19:36:35.726Z,72.80
2019-02-23T19:39:05.408Z,73.90
2019-02-23T19:41:34.697Z,73.50
2019-02-23T19:44:04.344Z,73.00
2019-02-23T19:46:34.124Z,73.10
2019-02-23T19:49:03.534Z,73.20
2019-02-23T19:51:32.733Z,73.30
2019-02-23T19:54:01.987Z,74.40
2019-02-23T19:56:31.267Z,76.20
2019-02-23T19:59:00.437Z,75.00
2019-02-23T20:01:29.777Z,75.30
2019-02-23T20:03:59.145Z,75.80
2019-02-23T20:06:28.397Z,75.90
2019-02-23T20:08:57.747Z,75.70
2019-02-23T20:11:26.998Z,75.60
2019-02-23T20:13:56.323Z,76.10
2019-02-23T20:16:25.693Z,76.70
2019-02-23T20:18:55.112Z,77.20
2019-02-23T20:21:24.325Z,78.00
2019-02-23T20:23:53.668Z,80.20
2019-02-23T20:26:22.986Z,79.30
2019-02-23T20:28:52.246Z,79.40
2019-02-23T20:31:21.579Z,80.60
2019-02-23T20:33:50.943Z,80.60
2019-02-23T20:36:20.267Z,80.40
2019-02-23T20:38:49.437Z,81.20
2019-02-23T20:41:18.625Z,81.10
2019-02-23T20:43:47.912Z,81.50
2019-02-23T20:46:17.138Z,81.90
2019-02-23T20:48:46.495Z,81.40
2019-02-23T20:51:15.950Z,81.30
2019-02-23T20:53:45.309Z,81.30
2019-02-23T20:56:14.895Z,82.60
2019-02-23T20:58:44.290Z,82.90
2019-02-23T21:01:13.535Z,83.10
2019-02-23T21:03:42.753Z,82.50
2019-02-23T21:06:12.120Z,82.70
2019-02-23T21:08:41.469Z,83.40
2019-02-23T21:11:10.755Z,82.80
2019-02-23T21:13:40.019Z,83.70
2019-02-23T21:16:09.193Z,84.90
2019-02-23T21:18:38.445Z,84.90
2019-02-23T21:21:07.685Z,85.20
2019-02-23T21:23:36.943Z,85.50
2019-02-23T21:26:06.298Z,85.70
2019-02-23T21:28:35.658Z,86.80
2019-02-23T21:31:04.896Z,87.10
2019-02-23T21:33:34.207Z,87.10
2019-02-23T21:36:03.460Z,86.90
2019-02-23T21:38:32.737Z,87.70
2019-02-23T21:41:02.076Z,87.10
2019-02-23T21:43:31.462Z,86.80
2019-02-23T21:46:00.717Z,88.10
2019-02-23T21:48:30.080Z,89.20
2019-02-23T21:50:59.250Z,88.00
2019-02-23T21:53:28.510Z,87.80
2019-02-23T21:55:57.797Z,88.00
2019-02-23T21:58:27.116Z,88.90
2019-02-23T22:00:56.480Z,90.90
2019-02-23T22:03:25.774Z,92.00
2019-02-23T22:05:55.032Z,92.10
2019-02-23T22:08:24.347Z,92.30
2019-02-23T22:10:53.626Z,93.00
2019-02-23T22:13:22.955Z,92.80
2019-02-23T22:15:52.291Z,92.70
2019-02-23T22:18:21.607Z,93.30
2019-02-23T22:20:50.856Z,93.60
2019-02-23T22:23:20.060Z,93.70
2019-02-23T22:25:49.317Z,94.20
2019-02-23T22:28:18.652Z,95.10
2019-02-23T22:30:47.897Z,94.40
2019-02-23T22:33:17.198Z,94.90
2019-02-23T22:35:46.518Z,95.50
2019-02-23T22:38:15.761Z,95.40
2019-02-23T22:40:45.118Z,95.40
2019-02-23T22:43:14.451Z,95.90
2019-02-23T22:45:43.624Z,95.90
2019-02-23T22:48:12.899Z,96.90
2019-02-23T22:50:42.233Z,96.80
2019-02-23T22:53:11.563Z,97.50
2019-02-23T22:55:40.833Z,98.00
2019-02-23T22:58:10.035Z,97.70
2019-02-23T23:00:56.010Z,96.80
2019-02-23T23:03:25.282Z,97.40
2019-02-23T23:05:54.625Z,97.80
2019-02-23T23:08:23.966Z,98.00
2019-02-23T23:10:53.346Z,98.20
2019-02-23T23:13:22.593Z,99.10
2019-02-23T23:15:51.987Z,98.90
2019-02-23T23:18:21.238Z,99.20
2019-02-23T23:20:50.419Z,99.90
2019-02-23T23:23:19.706Z,99.90
2019-02-23T23:25:48.903Z,99.90
2019-02-23T23:28:18.225Z,99.90
2019-02-23T23:30:47.574Z,99.90
2019-02-23T23:33:16.845Z,99.90
2019-02-23T23:35:46.075Z,99.90
2019-02-23T23:38:15.408Z,99.90
2019-02-23T23:40:44.672Z,99.60
2019-02-23T23:43:13.994Z,99.90
2019-02-23T23:45:43.252Z,99.90
2019-02-23T23:48:12.428Z,99.60
2019-02-23T23:50:41.683Z,99.90
2019-02-23T23:53:11.028Z,99.90
2019-02-23T23:55:40.334Z,99.90
2019-02-23T23:58:09.599Z,99.90
